sensor_id;sensor_type;location;lat;lon;timestamp;temperature;humidity
44723;DHT22;30451;48.638;10.624;2022-07-21T00:00:51;29.50;46.30
44723;DHT22;30451;48.638;10.624;2022-07-21T00:03:17;29.50;46.30
44723;DHT22;30451;48.638;10.624;2022-07-21T00:05:42;29.50;46.30
44723;DHT22;30451;48.638;10.624;2022-07-21T00:08:08;29.50;46.30
44723;DHT22;30451;48.638;10.624;2022-07-21T00:10:33;29.50;46.30
44723;DHT22;30451;48.638;10.624;2022-07-21T00:12:59;29.50;46.30
44723;DHT22;30451;48.638;10.624;2022-07-21T00:15:26;29.50;46.30
44723;DHT22;30451;48.638;10.624;2022-07-21T00:17:52;29.50;46.30
44723;DHT22;30451;48.638;10.624;2022-07-21T00:20:18;29.40;46.30
44723;DHT22;30451;48.638;10.624;2022-07-21T00:22:44;29.40;46.30
44723;DHT22;30451;48.638;10.624;2022-07-21T00:25:10;29.40;46.30
44723;DHT22;30451;48.638;10.624;2022-07-21T00:27:36;29.40;46.30
44723;DHT22;30451;48.638;10.624;2022-07-21T00:30:03;29.40;46.30
44723;DHT22;30451;48.638;10.624;2022-07-21T00:32:29;29.40;46.30
44723;DHT22;30451;48.638;10.624;2022-07-21T00:34:54;29.40;46.40
44723;DHT22;30451;48.638;10.624;2022-07-21T00:37:20;29.40;46.30
44723;DHT22;30451;48.638;10.624;2022-07-21T00:39:49;29.40;46.40
44723;DHT22;30451;48.638;10.624;2022-07-21T00:42:26;29.40;46.30
44723;DHT22;30451;48.638;10.624;2022-07-21T00:44:52;29.40;46.40
44723;DHT22;30451;48.638;10.624;2022-07-21T00:47:19;29.40;46.30
44723;DHT22;30451;48.638;10.624;2022-07-21T00:49:45;29.40;46.40
44723;DHT22;30451;48.638;10.624;2022-07-21T00:52:10;29.30;46.40
44723;DHT22;30451;48.638;10.624;2022-07-21T00:54:36;29.30;46.40
44723;DHT22;30451;48.638;10.624;2022-07-21T00:57:02;29.30;46.40
44723;DHT22;30451;48.638;10.624;2022-07-21T00:59:28;29.30;46.30
44723;DHT22;30451;48.638;10.624;2022-07-21T01:01:54;29.30;46.30
44723;DHT22;30451;48.638;10.624;2022-07-21T01:04:20;29.30;46.30
44723;DHT22;30451;48.638;10.624;2022-07-21T01:06:45;29.30;46.40
44723;DHT22;30451;48.638;10.624;2022-07-21T01:09:11;29.30;46.40
44723;DHT22;30451;48.638;10.624;2022-07-21T01:11:36;29.20;46.30
44723;DHT22;30451;48.638;10.624;2022-07-21T01:14:02;29.30;46.40
44723;DHT22;30451;48.638;10.624;2022-07-21T01:16:28;29.20;46.30
44723;DHT22;30451;48.638;10.624;2022-07-21T01:18:53;29.20;46.30
44723;DHT22;30451;48.638;10.624;2022-07-21T01:23:44;29.20;46.30
44723;DHT22;30451;48.638;10.624;2022-07-21T01:26:10;29.20;46.30
44723;DHT22;30451;48.638;10.624;2022-07-21T01:28:35;29.20;46.30
44723;DHT22;30451;48.638;10.624;2022-07-21T01:31:01;29.20;46.40
44723;DHT22;30451;48.638;10.624;2022-07-21T01:33:26;29.20;46.40
44723;DHT22;30451;48.638;10.624;2022-07-21T01:35:52;29.20;46.40
44723;DHT22;30451;48.638;10.624;2022-07-21T01:38:17;29.20;46.40
44723;DHT22;30451;48.638;10.624;2022-07-21T01:41:03;29.10;46.30
44723;DHT22;30451;48.638;10.624;2022-07-21T01:43:47;29.10;46.30
44723;DHT22;30451;48.638;10.624;2022-07-21T01:46:13;29.10;46.30
44723;DHT22;30451;48.638;10.624;2022-07-21T01:48:42;29.10;46.30
44723;DHT22;30451;48.638;10.624;2022-07-21T01:51:08;29.10;46.30
44723;DHT22;30451;48.638;10.624;2022-07-21T01:53:34;29.20;46.40
44723;DHT22;30451;48.638;10.624;2022-07-21T01:55:59;29.20;46.40
44723;DHT22;30451;48.638;10.624;2022-07-21T01:58:25;29.10;46.30
44723;DHT22;30451;48.638;10.624;2022-07-21T02:00:50;29.10;46.30
44723;DHT22;30451;48.638;10.624;2022-07-21T02:03:16;29.10;46.40
44723;DHT22;30451;48.638;10.624;2022-07-21T02:05:41;29.10;46.40
44723;DHT22;30451;48.638;10.624;2022-07-21T02:08:07;29.10;46.40
44723;DHT22;30451;48.638;10.624;2022-07-21T02:10:32;29.10;46.40
44723;DHT22;30451;48.638;10.624;2022-07-21T02:12:58;29.10;46.40
44723;DHT22;30451;48.638;10.624;2022-07-21T02:15:23;29.10;46.40
44723;DHT22;30451;48.638;10.624;2022-07-21T02:17:49;29.00;46.40
44723;DHT22;30451;48.638;10.624;2022-07-21T02:20:14;29.10;46.50
44723;DHT22;30451;48.638;10.624;2022-07-21T02:22:40;29.00;46.50
44723;DHT22;30451;48.638;10.624;2022-07-21T02:25:10;29.00;46.50
44723;DHT22;30451;48.638;10.624;2022-07-21T02:27:36;29.00;46.60
44723;DHT22;30451;48.638;10.624;2022-07-21T02:30:01;28.90;46.50
44723;DHT22;30451;48.638;10.624;2022-07-21T02:32:27;28.90;46.60
44723;DHT22;30451;48.638;10.624;2022-07-21T02:34:53;28.90;46.50
44723;DHT22;30451;48.638;10.624;2022-07-21T02:37:18;28.90;46.50
44723;DHT22;30451;48.638;10.624;2022-07-21T02:39:44;28.90;46.60
44723;DHT22;30451;48.638;10.624;2022-07-21T02:42:10;28.90;46.60
44723;DHT22;30451;48.638;10.624;2022-07-21T02:44:35;28.90;46.60
44723;DHT22;30451;48.638;10.624;2022-07-21T02:47:02;28.90;46.60
44723;DHT22;30451;48.638;10.624;2022-07-21T02:49:27;28.90;46.60
44723;DHT22;30451;48.638;10.624;2022-07-21T02:51:53;28.80;46.50
44723;DHT22;30451;48.638;10.624;2022-07-21T02:54:18;28.80;46.60
44723;DHT22;30451;48.638;10.624;2022-07-21T02:56:44;28.90;46.60
44723;DHT22;30451;48.638;10.624;2022-07-21T02:59:10;28.90;46.60
44723;DHT22;30451;48.638;10.624;2022-07-21T03:01:35;28.80;46.60
44723;DHT22;30451;48.638;10.624;2022-07-21T03:04:01;28.80;46.60
44723;DHT22;30451;48.638;10.624;2022-07-21T03:06:26;28.80;46.60
44723;DHT22;30451;48.638;10.624;2022-07-21T03:08:52;28.80;46.70
44723;DHT22;30451;48.638;10.624;2022-07-21T03:11:17;28.80;46.70
44723;DHT22;30451;48.638;10.624;2022-07-21T03:13:43;28.80;46.70
44723;DHT22;30451;48.638;10.624;2022-07-21T03:16:08;28.70;46.60
44723;DHT22;30451;48.638;10.624;2022-07-21T03:18:34;28.80;46.70
44723;DHT22;30451;48.638;10.624;2022-07-21T03:21:00;28.80;46.60
44723;DHT22;30451;48.638;10.624;2022-07-21T03:23:26;28.80;46.60
44723;DHT22;30451;48.638;10.624;2022-07-21T03:25:51;28.80;46.60
44723;DHT22;30451;48.638;10.624;2022-07-21T03:28:17;28.80;46.60
44723;DHT22;30451;48.638;10.624;2022-07-21T03:30:42;28.80;46.60
44723;DHT22;30451;48.638;10.624;2022-07-21T03:33:08;28.70;46.60
44723;DHT22;30451;48.638;10.624;2022-07-21T03:35:34;28.70;46.60
44723;DHT22;30451;48.638;10.624;2022-07-21T03:38:00;28.70;46.60
44723;DHT22;30451;48.638;10.624;2022-07-21T03:40:27;28.70;46.60
44723;DHT22;30451;48.638;10.624;2022-07-21T03:42:53;28.70;46.70
44723;DHT22;30451;48.638;10.624;2022-07-21T03:45:19;28.70;46.70
44723;DHT22;30451;48.638;10.624;2022-07-21T03:47:45;28.70;47.30
44723;DHT22;30451;48.638;10.624;2022-07-21T03:50:11;28.60;49.30
44723;DHT22;30451;48.638;10.624;2022-07-21T03:52:37;28.60;49.30
44723;DHT22;30451;48.638;10.624;2022-07-21T03:55:02;28.50;50.40
44723;DHT22;30451;48.638;10.624;2022-07-21T03:57:46;28.50;49.70
44723;DHT22;30451;48.638;10.624;2022-07-21T04:00:13;28.60;49.90
44723;DHT22;30451;48.638;10.624;2022-07-21T04:02:39;28.60;50.00
44723;DHT22;30451;48.638;10.624;2022-07-21T04:05:08;28.50;50.40
44723;DHT22;30451;48.638;10.624;2022-07-21T04:07:35;28.50;49.70
44723;DHT22;30451;48.638;10.624;2022-07-21T04:10:01;28.50;49.70
44723;DHT22;30451;48.638;10.624;2022-07-21T04:12:26;28.50;49.70
44723;DHT22;30451;48.638;10.624;2022-07-21T04:14:52;28.50;49.70
44723;DHT22;30451;48.638;10.624;2022-07-21T04:17:17;28.50;49.70
44723;DHT22;30451;48.638;10.624;2022-07-21T04:19:43;28.50;49.50
44723;DHT22;30451;48.638;10.624;2022-07-21T04:22:08;28.50;49.50
44723;DHT22;30451;48.638;10.624;2022-07-21T04:24:34;28.50;50.20
44723;DHT22;30451;48.638;10.624;2022-07-21T04:26:59;28.40;50.60
44723;DHT22;30451;48.638;10.624;2022-07-21T04:29:25;28.40;51.00
44723;DHT22;30451;48.638;10.624;2022-07-21T04:31:50;28.30;51.20
44723;DHT22;30451;48.638;10.624;2022-07-21T04:34:16;28.30;51.20
44723;DHT22;30451;48.638;10.624;2022-07-21T04:36:41;28.40;51.20
44723;DHT22;30451;48.638;10.624;2022-07-21T04:39:07;28.40;51.30
44723;DHT22;30451;48.638;10.624;2022-07-21T04:41:32;28.40;51.20
44723;DHT22;30451;48.638;10.624;2022-07-21T04:43:58;28.30;51.30
44723;DHT22;30451;48.638;10.624;2022-07-21T04:46:25;28.30;52.20
44723;DHT22;30451;48.638;10.624;2022-07-21T04:48:51;28.30;51.90
44723;DHT22;30451;48.638;10.624;2022-07-21T04:51:16;28.20;52.00
44723;DHT22;30451;48.638;10.624;2022-07-21T04:53:42;28.20;52.00
44723;DHT22;30451;48.638;10.624;2022-07-21T04:56:07;28.20;51.90
44723;DHT22;30451;48.638;10.624;2022-07-21T04:58:33;28.20;51.80
44723;DHT22;30451;48.638;10.624;2022-07-21T05:01:04;28.20;52.00
44723;DHT22;30451;48.638;10.624;2022-07-21T05:03:29;28.10;52.20
44723;DHT22;30451;48.638;10.624;2022-07-21T05:05:55;28.10;52.40
44723;DHT22;30451;48.638;10.624;2022-07-21T05:08:20;28.10;52.00
44723;DHT22;30451;48.638;10.624;2022-07-21T05:10:46;28.00;52.50
44723;DHT22;30451;48.638;10.624;2022-07-21T05:13:11;28.00;52.60
44723;DHT22;30451;48.638;10.624;2022-07-21T05:15:37;27.90;52.60
44723;DHT22;30451;48.638;10.624;2022-07-21T05:18:02;27.90;52.40
44723;DHT22;30451;48.638;10.624;2022-07-21T05:20:28;27.90;52.40
44723;DHT22;30451;48.638;10.624;2022-07-21T05:22:53;27.90;52.40
44723;DHT22;30451;48.638;10.624;2022-07-21T05:25:19;27.90;52.70
44723;DHT22;30451;48.638;10.624;2022-07-21T05:27:44;27.90;52.70
44723;DHT22;30451;48.638;10.624;2022-07-21T05:30:10;27.80;53.10
44723;DHT22;30451;48.638;10.624;2022-07-21T05:32:36;27.80;53.20
44723;DHT22;30451;48.638;10.624;2022-07-21T05:35:01;27.80;53.30
44723;DHT22;30451;48.638;10.624;2022-07-21T05:37:33;27.70;53.60
44723;DHT22;30451;48.638;10.624;2022-07-21T05:39:58;27.70;53.70
44723;DHT22;30451;48.638;10.624;2022-07-21T05:42:24;27.70;53.50
44723;DHT22;30451;48.638;10.624;2022-07-21T05:44:49;27.70;53.60
44723;DHT22;30451;48.638;10.624;2022-07-21T05:47:15;27.70;53.80
44723;DHT22;30451;48.638;10.624;2022-07-21T05:49:40;27.70;53.80
44723;DHT22;30451;48.638;10.624;2022-07-21T05:52:06;27.70;53.50
44723;DHT22;30451;48.638;10.624;2022-07-21T05:54:32;27.70;53.20
44723;DHT22;30451;48.638;10.624;2022-07-21T05:56:57;27.80;53.10
44723;DHT22;30451;48.638;10.624;2022-07-21T05:59:23;27.80;52.80
44723;DHT22;30451;48.638;10.624;2022-07-21T06:01:48;27.80;52.50
44723;DHT22;30451;48.638;10.624;2022-07-21T06:04:14;27.80;52.30
44723;DHT22;30451;48.638;10.624;2022-07-21T06:06:39;27.90;52.20
44723;DHT22;30451;48.638;10.624;2022-07-21T06:09:05;27.90;52.00
44723;DHT22;30451;48.638;10.624;2022-07-21T06:11:30;28.00;51.90
44723;DHT22;30451;48.638;10.624;2022-07-21T06:13:56;28.00;51.80
44723;DHT22;30451;48.638;10.624;2022-07-21T06:16:21;28.00;51.60
44723;DHT22;30451;48.638;10.624;2022-07-21T06:18:47;28.10;51.60
44723;DHT22;30451;48.638;10.624;2022-07-21T06:21:12;28.10;51.40
44723;DHT22;30451;48.638;10.624;2022-07-21T06:23:38;28.10;51.30
44723;DHT22;30451;48.638;10.624;2022-07-21T06:26:03;28.20;51.20
44723;DHT22;30451;48.638;10.624;2022-07-21T06:28:29;28.20;51.10
44723;DHT22;30451;48.638;10.624;2022-07-21T06:30:54;28.20;50.90
44723;DHT22;30451;48.638;10.624;2022-07-21T06:33:20;28.30;50.90
44723;DHT22;30451;48.638;10.624;2022-07-21T06:35:45;28.20;50.70
44723;DHT22;30451;48.638;10.624;2022-07-21T06:38:11;28.30;50.70
44723;DHT22;30451;48.638;10.624;2022-07-21T06:40:36;28.30;50.60
44723;DHT22;30451;48.638;10.624;2022-07-21T06:43:02;28.30;50.50
44723;DHT22;30451;48.638;10.624;2022-07-21T06:45:28;28.40;50.50
44723;DHT22;30451;48.638;10.624;2022-07-21T06:48:00;28.40;50.40
44723;DHT22;30451;48.638;10.624;2022-07-21T06:50:26;28.40;50.30
44723;DHT22;30451;48.638;10.624;2022-07-21T06:52:51;28.40;50.20
44723;DHT22;30451;48.638;10.624;2022-07-21T06:55:17;28.40;50.20
44723;DHT22;30451;48.638;10.624;2022-07-21T06:57:43;28.40;50.20
44723;DHT22;30451;48.638;10.624;2022-07-21T07:00:09;28.50;50.50
44723;DHT22;30451;48.638;10.624;2022-07-21T07:02:35;28.50;50.40
44723;DHT22;30451;48.638;10.624;2022-07-21T07:05:01;28.50;50.40
44723;DHT22;30451;48.638;10.624;2022-07-21T07:07:27;28.50;50.40
44723;DHT22;30451;48.638;10.624;2022-07-21T07:09:54;28.50;50.40
44723;DHT22;30451;48.638;10.624;2022-07-21T07:12:20;28.50;50.30
44723;DHT22;30451;48.638;10.624;2022-07-21T07:14:45;28.50;50.40
44723;DHT22;30451;48.638;10.624;2022-07-21T07:17:15;28.60;50.40
44723;DHT22;30451;48.638;10.624;2022-07-21T07:19:40;28.60;50.30
44723;DHT22;30451;48.638;10.624;2022-07-21T07:22:06;28.60;50.30
44723;DHT22;30451;48.638;10.624;2022-07-21T07:24:31;28.60;50.20
44723;DHT22;30451;48.638;10.624;2022-07-21T07:26:57;28.60;50.40
44723;DHT22;30451;48.638;10.624;2022-07-21T07:29:22;28.60;50.20
44723;DHT22;30451;48.638;10.624;2022-07-21T07:31:48;28.60;50.20
44723;DHT22;30451;48.638;10.624;2022-07-21T07:34:13;28.60;50.00
44723;DHT22;30451;48.638;10.624;2022-07-21T07:36:39;28.70;50.00
44723;DHT22;30451;48.638;10.624;2022-07-21T07:39:04;28.70;49.90
44723;DHT22;30451;48.638;10.624;2022-07-21T07:41:30;28.70;49.70
44723;DHT22;30451;48.638;10.624;2022-07-21T07:43:56;28.70;49.70
44723;DHT22;30451;48.638;10.624;2022-07-21T07:46:23;28.80;49.70
44723;DHT22;30451;48.638;10.624;2022-07-21T07:48:49;28.80;49.60
44723;DHT22;30451;48.638;10.624;2022-07-21T07:51:14;28.80;49.50
44723;DHT22;30451;48.638;10.624;2022-07-21T07:53:40;28.80;49.40
44723;DHT22;30451;48.638;10.624;2022-07-21T07:56:06;28.80;49.40
44723;DHT22;30451;48.638;10.624;2022-07-21T07:58:32;28.80;49.30
44723;DHT22;30451;48.638;10.624;2022-07-21T08:00:58;28.90;49.30
44723;DHT22;30451;48.638;10.624;2022-07-21T08:03:23;28.90;49.30
44723;DHT22;30451;48.638;10.624;2022-07-21T08:05:50;28.90;49.30
44723;DHT22;30451;48.638;10.624;2022-07-21T08:08:16;28.90;49.20
44723;DHT22;30451;48.638;10.624;2022-07-21T08:10:42;28.90;49.20
44723;DHT22;30451;48.638;10.624;2022-07-21T08:13:09;29.00;49.30
44723;DHT22;30451;48.638;10.624;2022-07-21T08:15:35;29.00;49.20
44723;DHT22;30451;48.638;10.624;2022-07-21T08:18:00;29.00;49.70
44723;DHT22;30451;48.638;10.624;2022-07-21T08:20:26;29.00;49.20
44723;DHT22;30451;48.638;10.624;2022-07-21T08:22:51;29.00;49.10
44723;DHT22;30451;48.638;10.624;2022-07-21T08:25:17;29.00;49.00
44723;DHT22;30451;48.638;10.624;2022-07-21T08:27:43;29.00;49.00
44723;DHT22;30451;48.638;10.624;2022-07-21T08:30:09;29.10;49.10
44723;DHT22;30451;48.638;10.624;2022-07-21T08:32:35;29.10;49.00
44723;DHT22;30451;48.638;10.624;2022-07-21T08:35:01;29.10;49.10
44723;DHT22;30451;48.638;10.624;2022-07-21T08:37:26;29.10;49.20
44723;DHT22;30451;48.638;10.624;2022-07-21T08:39:54;29.10;49.00
44723;DHT22;30451;48.638;10.624;2022-07-21T08:42:19;29.10;49.00
44723;DHT22;30451;48.638;10.624;2022-07-21T08:44:45;29.10;48.90
44723;DHT22;30451;48.638;10.624;2022-07-21T08:47:11;29.10;48.90
44723;DHT22;30451;48.638;10.624;2022-07-21T08:49:36;29.20;48.90
44723;DHT22;30451;48.638;10.624;2022-07-21T08:52:10;29.20;48.90
44723;DHT22;30451;48.638;10.624;2022-07-21T08:54:36;29.20;49.00
44723;DHT22;30451;48.638;10.624;2022-07-21T08:57:05;29.20;48.90
44723;DHT22;30451;48.638;10.624;2022-07-21T08:59:30;29.20;48.80
44723;DHT22;30451;48.638;10.624;2022-07-21T09:01:56;29.20;49.30
44723;DHT22;30451;48.638;10.624;2022-07-21T09:04:25;29.20;49.50
44723;DHT22;30451;48.638;10.624;2022-07-21T09:06:58;29.20;49.60
44723;DHT22;30451;48.638;10.624;2022-07-21T09:09:28;29.20;49.70
44723;DHT22;30451;48.638;10.624;2022-07-21T09:11:54;29.20;49.30
44723;DHT22;30451;48.638;10.624;2022-07-21T09:14:20;29.20;49.10
44723;DHT22;30451;48.638;10.624;2022-07-21T09:19:22;29.30;49.00
44723;DHT22;30451;48.638;10.624;2022-07-21T09:21:49;29.30;48.90
44723;DHT22;30451;48.638;10.624;2022-07-21T09:24:16;29.30;48.80
44723;DHT22;30451;48.638;10.624;2022-07-21T09:29:38;29.40;48.80
44723;DHT22;30451;48.638;10.624;2022-07-21T09:34:49;29.40;48.80
44723;DHT22;30451;48.638;10.624;2022-07-21T09:37:15;29.40;48.70
44723;DHT22;30451;48.638;10.624;2022-07-21T09:42:17;29.40;48.70
44723;DHT22;30451;48.638;10.624;2022-07-21T09:44:43;29.40;48.70
44723;DHT22;30451;48.638;10.624;2022-07-21T09:47:10;29.40;48.90
44723;DHT22;30451;48.638;10.624;2022-07-21T09:49:36;29.40;49.00
44723;DHT22;30451;48.638;10.624;2022-07-21T09:52:05;29.50;49.00
44723;DHT22;30451;48.638;10.624;2022-07-21T09:54:42;29.40;49.10
44723;DHT22;30451;48.638;10.624;2022-07-21T09:57:08;29.50;49.00
44723;DHT22;30451;48.638;10.624;2022-07-21T09:59:34;29.50;48.80
44723;DHT22;30451;48.638;10.624;2022-07-21T10:01:59;29.50;48.70
44723;DHT22;30451;48.638;10.624;2022-07-21T10:04:25;29.50;48.80
44723;DHT22;30451;48.638;10.624;2022-07-21T10:06:50;29.50;48.80
44723;DHT22;30451;48.638;10.624;2022-07-21T10:09:19;29.50;48.80
44723;DHT22;30451;48.638;10.624;2022-07-21T10:11:45;29.50;48.80
44723;DHT22;30451;48.638;10.624;2022-07-21T10:14:12;29.50;48.80
44723;DHT22;30451;48.638;10.624;2022-07-21T10:16:38;29.50;48.80
44723;DHT22;30451;48.638;10.624;2022-07-21T10:19:08;29.50;48.90
44723;DHT22;30451;48.638;10.624;2022-07-21T10:24:19;29.50;48.80
44723;DHT22;30451;48.638;10.624;2022-07-21T10:27:05;29.50;48.90
44723;DHT22;30451;48.638;10.624;2022-07-21T10:32:19;29.60;48.90
44723;DHT22;30451;48.638;10.624;2022-07-21T10:34:48;29.60;49.10
44723;DHT22;30451;48.638;10.624;2022-07-21T10:39:58;29.60;48.60
44723;DHT22;30451;48.638;10.624;2022-07-21T10:42:23;29.60;48.60
44723;DHT22;30451;48.638;10.624;2022-07-21T10:44:49;29.60;48.60
44723;DHT22;30451;48.638;10.624;2022-07-21T10:47:21;29.60;48.50
44723;DHT22;30451;48.638;10.624;2022-07-21T10:49:50;29.60;48.50
44723;DHT22;30451;48.638;10.624;2022-07-21T10:58:08;29.60;48.60
44723;DHT22;30451;48.638;10.624;2022-07-21T11:00:37;29.60;48.70
44723;DHT22;30451;48.638;10.624;2022-07-21T11:03:03;29.60;48.80
44723;DHT22;30451;48.638;10.624;2022-07-21T11:05:31;29.60;49.00
44723;DHT22;30451;48.638;10.624;2022-07-21T11:08:16;29.50;48.90
44723;DHT22;30451;48.638;10.624;2022-07-21T11:10:49;29.60;48.90
44723;DHT22;30451;48.638;10.624;2022-07-21T11:13:15;29.60;48.80
44723;DHT22;30451;48.638;10.624;2022-07-21T11:15:48;29.60;48.90
44723;DHT22;30451;48.638;10.624;2022-07-21T11:18:17;29.60;48.80
44723;DHT22;30451;48.638;10.624;2022-07-21T11:20:43;29.60;48.80
44723;DHT22;30451;48.638;10.624;2022-07-21T11:23:08;29.60;48.80
44723;DHT22;30451;48.638;10.624;2022-07-21T11:25:34;29.60;49.00
44723;DHT22;30451;48.638;10.624;2022-07-21T11:28:00;29.60;48.90
44723;DHT22;30451;48.638;10.624;2022-07-21T11:30:25;29.60;49.00
44723;DHT22;30451;48.638;10.624;2022-07-21T11:32:51;29.60;49.10
44723;DHT22;30451;48.638;10.624;2022-07-21T11:35:16;29.60;49.00
44723;DHT22;30451;48.638;10.624;2022-07-21T11:37:43;29.70;49.10
44723;DHT22;30451;48.638;10.624;2022-07-21T11:42:38;29.70;48.90
44723;DHT22;30451;48.638;10.624;2022-07-21T11:45:04;29.70;49.10
44723;DHT22;30451;48.638;10.624;2022-07-21T11:47:30;29.70;49.10
44723;DHT22;30451;48.638;10.624;2022-07-21T11:50:00;29.70;49.10
44723;DHT22;30451;48.638;10.624;2022-07-21T11:52:27;29.70;49.00
44723;DHT22;30451;48.638;10.624;2022-07-21T11:54:54;29.70;49.10
44723;DHT22;30451;48.638;10.624;2022-07-21T11:57:21;29.70;49.00
44723;DHT22;30451;48.638;10.624;2022-07-21T11:59:47;29.80;49.00
44723;DHT22;30451;48.638;10.624;2022-07-21T12:04:43;29.80;49.00
44723;DHT22;30451;48.638;10.624;2022-07-21T12:09:37;29.80;49.00
44723;DHT22;30451;48.638;10.624;2022-07-21T12:12:03;29.80;48.90
44723;DHT22;30451;48.638;10.624;2022-07-21T12:14:38;29.80;48.90
44723;DHT22;30451;48.638;10.624;2022-07-21T12:17:04;29.90;48.90
44723;DHT22;30451;48.638;10.624;2022-07-21T12:19:29;29.90;48.90
44723;DHT22;30451;48.638;10.624;2022-07-21T12:21:55;29.90;48.90
44723;DHT22;30451;48.638;10.624;2022-07-21T12:24:21;29.90;48.90
44723;DHT22;30451;48.638;10.624;2022-07-21T12:26:49;29.90;49.10
44723;DHT22;30451;48.638;10.624;2022-07-21T12:29:24;29.90;48.90
44723;DHT22;30451;48.638;10.624;2022-07-21T12:31:50;29.90;49.10
44723;DHT22;30451;48.638;10.624;2022-07-21T12:34:16;29.90;49.10
44723;DHT22;30451;48.638;10.624;2022-07-21T12:36:44;29.90;48.90
44723;DHT22;30451;48.638;10.624;2022-07-21T12:39:19;30.00;49.00
44723;DHT22;30451;48.638;10.624;2022-07-21T12:42:07;30.00;48.80
44723;DHT22;30451;48.638;10.624;2022-07-21T12:44:33;30.00;48.80
44723;DHT22;30451;48.638;10.624;2022-07-21T12:47:15;30.00;48.90
44723;DHT22;30451;48.638;10.624;2022-07-21T12:50:00;30.00;48.90
44723;DHT22;30451;48.638;10.624;2022-07-21T12:52:27;30.00;48.90
44723;DHT22;30451;48.638;10.624;2022-07-21T12:54:53;30.00;48.90
44723;DHT22;30451;48.638;10.624;2022-07-21T12:57:18;30.00;48.90
44723;DHT22;30451;48.638;10.624;2022-07-21T12:59:47;30.00;48.90
44723;DHT22;30451;48.638;10.624;2022-07-21T13:02:12;30.00;48.90
44723;DHT22;30451;48.638;10.624;2022-07-21T13:04:38;30.00;48.90
44723;DHT22;30451;48.638;10.624;2022-07-21T13:07:03;30.00;48.80
44723;DHT22;30451;48.638;10.624;2022-07-21T13:09:29;30.00;48.70
44723;DHT22;30451;48.638;10.624;2022-07-21T13:11:54;30.00;48.80
44723;DHT22;30451;48.638;10.624;2022-07-21T13:14:20;30.00;48.70
44723;DHT22;30451;48.638;10.624;2022-07-21T13:16:45;30.00;48.70
44723;DHT22;30451;48.638;10.624;2022-07-21T13:19:11;30.00;48.60
44723;DHT22;30451;48.638;10.624;2022-07-21T13:21:36;30.00;48.70
44723;DHT22;30451;48.638;10.624;2022-07-21T13:24:02;30.00;48.60
44723;DHT22;30451;48.638;10.624;2022-07-21T13:26:27;30.10;48.60
44723;DHT22;30451;48.638;10.624;2022-07-21T13:28:54;30.10;48.80
44723;DHT22;30451;48.638;10.624;2022-07-21T13:31:19;30.10;48.80
44723;DHT22;30451;48.638;10.624;2022-07-21T13:33:46;30.10;48.70
44723;DHT22;30451;48.638;10.624;2022-07-21T13:36:12;30.10;48.60
44723;DHT22;30451;48.638;10.624;2022-07-21T13:38:38;30.10;48.60
44723;DHT22;30451;48.638;10.624;2022-07-21T13:41:04;30.10;49.00
44723;DHT22;30451;48.638;10.624;2022-07-21T13:43:30;30.20;48.80
44723;DHT22;30451;48.638;10.624;2022-07-21T13:45:55;30.20;48.90
44723;DHT22;30451;48.638;10.624;2022-07-21T13:48:21;30.20;48.70
44723;DHT22;30451;48.638;10.624;2022-07-21T13:50:46;30.20;48.60
44723;DHT22;30451;48.638;10.624;2022-07-21T13:53:12;30.20;48.50
44723;DHT22;30451;48.638;10.624;2022-07-21T13:55:38;30.20;49.00
44723;DHT22;30451;48.638;10.624;2022-07-21T13:58:03;30.20;48.70
44723;DHT22;30451;48.638;10.624;2022-07-21T14:00:32;30.20;48.90
44723;DHT22;30451;48.638;10.624;2022-07-21T14:02:57;30.20;48.70
44723;DHT22;30451;48.638;10.624;2022-07-21T14:05:23;30.20;49.10
44723;DHT22;30451;48.638;10.624;2022-07-21T14:07:48;30.20;48.90
44723;DHT22;30451;48.638;10.624;2022-07-21T14:10:14;30.30;48.80
44723;DHT22;30451;48.638;10.624;2022-07-21T14:12:39;30.20;48.70
44723;DHT22;30451;48.638;10.624;2022-07-21T14:15:05;30.30;48.80
44723;DHT22;30451;48.638;10.624;2022-07-21T14:17:31;30.20;48.60
44723;DHT22;30451;48.638;10.624;2022-07-21T14:19:56;30.30;48.80
44723;DHT22;30451;48.638;10.624;2022-07-21T14:22:22;30.30;48.80
44723;DHT22;30451;48.638;10.624;2022-07-21T14:24:48;30.30;48.90
44723;DHT22;30451;48.638;10.624;2022-07-21T14:27:32;30.30;48.80
44723;DHT22;30451;48.638;10.624;2022-07-21T14:29:58;30.30;48.80
44723;DHT22;30451;48.638;10.624;2022-07-21T14:32:24;30.30;48.80
44723;DHT22;30451;48.638;10.624;2022-07-21T14:34:50;30.30;48.70
44723;DHT22;30451;48.638;10.624;2022-07-21T14:37:15;30.30;48.60
44723;DHT22;30451;48.638;10.624;2022-07-21T14:39:41;30.30;48.60
44723;DHT22;30451;48.638;10.624;2022-07-21T14:42:06;30.30;48.60
44723;DHT22;30451;48.638;10.624;2022-07-21T14:44:32;30.30;48.50
44723;DHT22;30451;48.638;10.624;2022-07-21T14:46:58;30.30;48.50
44723;DHT22;30451;48.638;10.624;2022-07-21T14:49:23;30.30;48.50
44723;DHT22;30451;48.638;10.624;2022-07-21T14:51:52;30.30;48.40
44723;DHT22;30451;48.638;10.624;2022-07-21T14:54:17;30.30;48.60
44723;DHT22;30451;48.638;10.624;2022-07-21T14:56:43;30.30;48.60
44723;DHT22;30451;48.638;10.624;2022-07-21T14:59:11;30.40;48.60
44723;DHT22;30451;48.638;10.624;2022-07-21T15:01:37;30.40;48.60
44723;DHT22;30451;48.638;10.624;2022-07-21T15:04:03;30.40;48.50
44723;DHT22;30451;48.638;10.624;2022-07-21T15:06:29;30.40;48.50
44723;DHT22;30451;48.638;10.624;2022-07-21T15:09:01;30.30;48.50
44723;DHT22;30451;48.638;10.624;2022-07-21T15:11:27;30.40;48.50
44723;DHT22;30451;48.638;10.624;2022-07-21T15:13:56;30.40;48.50
44723;DHT22;30451;48.638;10.624;2022-07-21T15:16:24;30.40;48.60
44723;DHT22;30451;48.638;10.624;2022-07-21T15:18:50;30.40;48.70
44723;DHT22;30451;48.638;10.624;2022-07-21T15:21:15;30.40;48.60
44723;DHT22;30451;48.638;10.624;2022-07-21T15:23:41;30.40;48.60
44723;DHT22;30451;48.638;10.624;2022-07-21T15:26:07;30.40;48.50
44723;DHT22;30451;48.638;10.624;2022-07-21T15:28:32;30.40;48.50
44723;DHT22;30451;48.638;10.624;2022-07-21T15:30:58;30.40;48.50
44723;DHT22;30451;48.638;10.624;2022-07-21T15:33:24;30.40;48.50
44723;DHT22;30451;48.638;10.624;2022-07-21T15:35:49;30.50;48.50
44723;DHT22;30451;48.638;10.624;2022-07-21T15:38:22;30.50;48.50
44723;DHT22;30451;48.638;10.624;2022-07-21T15:40:48;30.50;48.50
44723;DHT22;30451;48.638;10.624;2022-07-21T15:43:14;30.50;48.40
44723;DHT22;30451;48.638;10.624;2022-07-21T15:45:40;30.50;48.40